Delta Billie — WDE8059 — position and weather

sailwx.info

Track history (hours):
 
Tides and Currents Weather Stations Pressure Air Temp Water Temp Dewpoint Dewpoint Depression Visibility Wind Speed Wind Dir Waves Ship Positions

Delta Billie

Owner: Baydelta Maritime, San Francicso, CA. More information available from US FCC via Universal Licensing System and Coast Guard Vessel Documentation Center.

Last reported at 2015-Apr-21 04:33 UTC. Time now 2015-Apr-21 05:04 UTC.
Position N 37°48' W 122°24'.

Length 30 m; draft 5.5 m.

Type: Towing. MMSI: 367401030.

Date/timePositionNaut miles runAvg speedWind from/ knotsBaromVisibWave heightAir tempDewpointWater temp
2015-Apr-21 04:33N 37°48' W 122°24'0 0.0
2015-Apr-21 03:33N 37°48' W 122°24'3 2.8
2015-Apr-21 02:34N 37°48' W 122°20'2 2.1
2015-Apr-21 01:34N 37°48' W 122°18'1 1.0
2015-Apr-21 00:34N 37°48' W 122°19'4 3.8
2015-Apr-20 23:33N 37°48' W 122°24'0 0.0
2015-Apr-20 22:33N 37°48' W 122°24'0 0.0
2015-Apr-20 21:33N 37°48' W 122°24'0 0.0
2015-Apr-20 20:34N 37°48' W 122°24'0 0.0
2015-Apr-20 19:34N 37°48' W 122°24'0 0.0
2015-Apr-20 18:34N 37°48' W 122°24'0 0.0
2015-Apr-20 17:34N 37°48' W 122°24'0 0.0
2015-Apr-20 16:33N 37°48' W 122°24'0 0.0
2015-Apr-20 15:34N 37°48' W 122°24'0 0.3
2015-Apr-20 14:33N 37°48' W 122°23'5 4.8
2015-Apr-20 13:34N 37°48' W 122°18'2 1.6
2015-Apr-20 12:33N 37°48' W 122°20'3 3.5
2015-Apr-20 11:34N 37°48' W 122°24'0 0.0
2015-Apr-20 10:34N 37°48' W 122°24'0 0.0
2015-Apr-20 09:34N 37°48' W 122°24'4 3.8
2015-Apr-20 08:33N 37°52' W 122°25'3 3.5
2015-Apr-20 07:33N 37°55' W 122°25'3 2.6
2015-Apr-20 06:34N 37°53' W 122°25'8 7.9
2015-Apr-20 05:34N 37°45' W 122°21'0 0.2
2015-Apr-20 04:33N 37°45' W 122°22'3 3.3
2015-Apr-20 03:33N 37°48' W 122°24'0 0.0
2015-Apr-20 02:33N 37°48' W 122°24'0 0.0
2015-Apr-20 01:34N 37°48' W 122°24'0 0.0
2015-Apr-20 00:33N 37°48' W 122°24'0 0.3
2015-Apr-19 23:34N 37°48' W 122°24'1 1.2
2015-Apr-19 22:33N 37°50' W 122°25'1 1.5
2015-Apr-19 21:33N 37°48' W 122°24'0 0.0
2015-Apr-19 20:33N 37°48' W 122°24'0 0.0
2015-Apr-19 19:33N 37°48' W 122°24'0 0.0
2015-Apr-19 18:34N 37°48' W 122°24'3 3.2
2015-Apr-19 17:34N 37°51' W 122°25'8 8.0
2015-Apr-19 16:34N 37°59' W 122°25'9 9.0
2015-Apr-19 15:33N 38°04' W 122°15'5 0.7
2015-Apr-19 08:04N 38°02' W 122°09'0 0.1
2015-Apr-19 06:31N 38°02' W 122°09'9 9.0
2015-Apr-19 05:33N 38°03' W 122°20'1010.2
2015-Apr-19 04:33N 37°54' W 122°26'6 6.2
2015-Apr-19 03:34N 37°49' W 122°31'4 4.5
2015-Apr-19 02:34N 37°49' W 122°26'2 1.6
2015-Apr-19 01:34N 37°48' W 122°24'0 0.0
2015-Apr-19 00:34N 37°48' W 122°24'0 0.0
2015-Apr-18 23:34N 37°48' W 122°24'0 0.0
2015-Apr-18 22:34N 37°48' W 122°24'0 0.0
2015-Apr-18 21:33N 37°48' W 122°24'0 0.0
2015-Apr-18 20:33N 37°48' W 122°24'0 0.0
2015-Apr-18 19:33N 37°48' W 122°24'0 0.0
2015-Apr-18 18:34N 37°48' W 122°24'0 0.0
2015-Apr-18 17:33N 37°48' W 122°24'0 0.0
2015-Apr-18 16:34N 37°48' W 122°24'0 0.0
2015-Apr-18 15:33N 37°48' W 122°24'0 0.0
2015-Apr-18 14:33N 37°48' W 122°24'4 4.2
2015-Apr-18 13:34N 37°48' W 122°19'1 0.8
2015-Apr-18 12:34N 37°48' W 122°18'5 4.6
2015-Apr-18 11:34N 37°49' W 122°23'1 1.0
2015-Apr-18 10:34N 37°48' W 122°24'0 0.0
2015-Apr-18 09:34N 37°48' W 122°24'0 0.0
2015-Apr-18 08:34N 37°48' W 122°24'0 0.0
2015-Apr-18 07:33N 37°48' W 122°24'0 0.0
2015-Apr-18 06:33N 37°48' W 122°24'0 0.0
2015-Apr-18 05:33N 37°48' W 122°24'0 0.0
2015-Apr-18 04:34N 37°48' W 122°24'0 0.0
2015-Apr-18 03:33N 37°48' W 122°24'0 0.0
2015-Apr-18 02:33N 37°48' W 122°24'0 0.0
2015-Apr-18 01:34N 37°48' W 122°24'0 0.0
2015-Apr-18 00:34N 37°48' W 122°24'0 0.0
2015-Apr-17 23:33N 37°48' W 122°24'0 0.0
2015-Apr-17 22:34N 37°48' W 122°24'0 0.0
2015-Apr-17 21:34N 37°48' W 122°24'0 0.0
2015-Apr-17 20:33N 37°48' W 122°24'0 0.0
2015-Apr-17 19:34N 37°48' W 122°24'0 0.0
2015-Apr-17 18:34N 37°48' W 122°24'0 0.0
2015-Apr-17 17:34N 37°48' W 122°24'1 0.8
2015-Apr-17 16:33N 37°49' W 122°24'5 5.4
2015-Apr-17 15:34N 37°54' W 122°22'1 0.8
2015-Apr-17 14:33N 37°55' W 122°22'0 0.0
2015-Apr-17 13:34N 37°55' W 122°22'1 0.7
2015-Apr-17 12:34N 37°54' W 122°22'6 6.4
2015-Apr-17 11:33N 37°48' W 122°24'0 0.0
2015-Apr-17 10:34N 37°48' W 122°24'0 0.0
2015-Apr-17 09:34N 37°48' W 122°24'0 0.0
2015-Apr-17 08:34N 37°48' W 122°24'0 0.0
2015-Apr-17 07:33N 37°48' W 122°24'0 0.0
2015-Apr-17 06:33N 37°48' W 122°24'0 0.0
2015-Apr-17 05:33N 37°48' W 122°24'0 0.0
2015-Apr-17 04:33N 37°48' W 122°24'0 0.0
2015-Apr-17 03:34N 37°48' W 122°24'0 0.0
2015-Apr-17 02:33N 37°48' W 122°24'0 0.0
2015-Apr-17 01:33N 37°48' W 122°24'5 5.3
2015-Apr-17 00:34N 37°48' W 122°17'2 1.6
2015-Apr-16 23:34N 37°48' W 122°19'4 3.6
2015-Apr-16 22:34N 37°48' W 122°24'0 0.0
2015-Apr-16 21:33N 37°48' W 122°24'1 1.0
2015-Apr-16 20:34N 37°49' W 122°24'10 9.5
2015-Apr-16 19:33N 37°59' W 122°26'11 7.6
2015-Apr-16 18:10N 38°04' W 122°14'4 0.3
2015-Apr-16 03:33N 38°02' W 122°09'1 1.1
2015-Apr-16 02:27N 38°02' W 122°08'8 0.4
2015-Apr-15 03:25N 38°03' W 122°18'1011.1
2015-Apr-15 02:33N 37°56' W 122°27'8 8.0
2015-Apr-15 01:34N 37°49' W 122°29'1 1.4
2015-Apr-15 00:33N 37°49' W 122°31'1 0.6
2015-Apr-14 23:33N 37°49' W 122°30'6 6.3
2015-Apr-14 22:33N 37°54' W 122°25'10 9.5
2015-Apr-14 21:31N 38°03' W 122°20'5 1.0
2015-Apr-14 16:10N 38°04' W 122°13'912.7
2015-Apr-14 15:29N 38°01' W 122°24'1010.9
2015-Apr-14 14:34N 37°51' W 122°23'4 4.2
2015-Apr-14 13:33N 37°48' W 122°19'3 3.2
2015-Apr-14 12:34N 37°47' W 122°23'1 1.2
2015-Apr-14 11:33N 37°48' W 122°24'0 0.0
2015-Apr-14 10:33N 37°48' W 122°24'0 0.0
2015-Apr-14 09:33N 37°48' W 122°24'0 0.0
2015-Apr-14 08:33N 37°48' W 122°24'0 0.0
2015-Apr-14 07:33N 37°48' W 122°24'0 0.0
2015-Apr-14 06:33N 37°48' W 122°24'0 0.0
2015-Apr-14 05:33N 37°48' W 122°24'0 0.0
2015-Apr-14 04:33N 37°48' W 122°24'0 0.0
2015-Apr-14 03:33N 37°48' W 122°24'0 0.0
2015-Apr-14 02:33N 37°48' W 122°24'0 0.0
2015-Apr-14 01:33N 37°48' W 122°24'0 0.0
2015-Apr-14 00:33N 37°48' W 122°24'0 0.0
2015-Apr-13 23:33N 37°48' W 122°24'0 0.0
2015-Apr-13 22:33N 37°48' W 122°24'0 0.0
2015-Apr-13 21:33N 37°48' W 122°24'0 0.0
2015-Apr-13 20:33N 37°48' W 122°24'0 0.0
2015-Apr-13 19:33N 37°48' W 122°24'0 0.0
2015-Apr-13 18:33N 37°48' W 122°24'0 0.0
2015-Apr-13 17:33N 37°48' W 122°24'0 0.0
2015-Apr-13 16:33N 37°48' W 122°24'0 0.0
2015-Apr-13 15:33N 37°48' W 122°24'0 0.0
2015-Apr-13 14:33N 37°48' W 122°24'0 0.0
2015-Apr-13 13:33N 37°48' W 122°24'0 0.0
2015-Apr-13 12:33N 37°48' W 122°24'0 0.0
2015-Apr-13 11:33N 37°48' W 122°24'0 0.0
2015-Apr-13 10:12N 37°48' W 122°24'0 0.0
2015-Apr-13 09:29N 37°48' W 122°24'0 0.0
2015-Apr-13 08:30N 37°48' W 122°24'0 0.0
2015-Apr-13 07:33N 37°48' W 122°24'0 0.0
2015-Apr-13 06:31N 37°48' W 122°24'0 0.0
2015-Apr-13 05:27N 37°48' W 122°24'0 0.0
2015-Apr-13 04:33N 37°48' W 122°24'0 0.0
2015-Apr-13 03:33N 37°48' W 122°24'0 0.0
2015-Apr-13 02:33N 37°48' W 122°24'5 4.5
2015-Apr-13 01:33N 37°53' W 122°25'8 7.9
2015-Apr-13 00:33N 38°00' W 122°24'8 8.1
2015-Apr-12 23:33N 38°04' W 122°14'7 5.1
2015-Apr-12 22:14N 38°02' W 122°23'6 8.3
2015-Apr-12 21:33N 37°56' W 122°26'8 8.4
2015-Apr-12 20:33N 37°48' W 122°24'0 0.0
2015-Apr-12 19:33N 37°48' W 122°24'0 0.0
2015-Apr-12 18:33N 37°48' W 122°24'0 0.0
2015-Apr-12 17:33N 37°48' W 122°24'0 0.0
2015-Apr-12 16:33N 37°48' W 122°24'0 0.0
2015-Apr-12 15:33N 37°48' W 122°24'0 0.0
2015-Apr-12 14:33N 37°48' W 122°24'0 0.0
2015-Apr-12 13:33N 37°48' W 122°24'3 3.3
2015-Apr-12 12:33N 37°49' W 122°20'0 0.1
2015-Apr-12 11:33N 37°49' W 122°20'3 3.2
2015-Apr-12 10:33N 37°48' W 122°24'0 0.0
2015-Apr-12 09:33N 37°48' W 122°24'0 0.0
2015-Apr-12 08:33N 37°48' W 122°24'0 0.0
2015-Apr-12 07:33N 37°48' W 122°24'0 0.0
2015-Apr-12 06:33N 37°48' W 122°24'0 0.0
2015-Apr-12 05:33N 37°48' W 122°24'0 0.0
2015-Apr-12 04:33N 37°48' W 122°24'0 0.0
2015-Apr-12 03:33N 37°48' W 122°24'0 0.0
2015-Apr-12 02:33N 37°48' W 122°24'0 0.0
2015-Apr-12 01:33N 37°48' W 122°24'0 0.0
2015-Apr-12 00:33N 37°48' W 122°24'0 0.0
2015-Apr-11 23:33N 37°48' W 122°24'4 4.0
2015-Apr-11 22:34N 37°48' W 122°19'4 4.0
2015-Apr-11 21:33N 37°48' W 122°24'0 0.0
2015-Apr-11 20:33N 37°48' W 122°24'0 0.0
2015-Apr-11 19:33N 37°48' W 122°24'0 0.0
2015-Apr-11 18:33N 37°48' W 122°24'0 0.0
2015-Apr-11 17:33N 37°48' W 122°24'0 0.0
2015-Apr-11 16:33N 37°48' W 122°24'2 2.0
2015-Apr-11 15:33N 37°49' W 122°26'2 1.5
2015-Apr-11 14:32N 37°50' W 122°27'8 8.2
2015-Apr-11 13:33N 37°59' W 122°26'8 7.7
2015-Apr-11 12:33N 38°03' W 122°18'8 6.5
2015-Apr-11 11:24N 38°02' W 122°09'1 1.3
2015-Apr-11 10:32N 38°03' W 122°08'0 0.0
2015-Apr-11 05:19N 38°03' W 122°08'0 0.0
2015-Apr-11 04:33N 38°03' W 122°08'  
Track history (hours):
 
Tides and Currents Weather Stations Pressure Air Temp Water Temp Dewpoint Dewpoint Depression Visibility Wind Speed Wind Dir Waves Ship Positions

Delta Billie

Owner: Baydelta Maritime, San Francicso, CA. More information available from US FCC via Universal Licensing System and Coast Guard Vessel Documentation Center.

Last reported at 2015-Apr-21 04:33 UTC. Time now 2015-Apr-21 05:04 UTC.
Position N 37°48' W 122°24'.

Length 30 m; draft 5.5 m.

Type: Towing. MMSI: 367401030.

Date/timePositionNaut miles runAvg speedWind from/ knotsBaromVisibWave heightAir tempDewpointWater temp
2015-Apr-21 04:33N 37°48' W 122°24'0 0.0
2015-Apr-21 03:33N 37°48' W 122°24'3 2.8
2015-Apr-21 02:34N 37°48' W 122°20'2 2.1
2015-Apr-21 01:34N 37°48' W 122°18'1 1.0
2015-Apr-21 00:34N 37°48' W 122°19'4 3.8
2015-Apr-20 23:33N 37°48' W 122°24'0 0.0
2015-Apr-20 22:33N 37°48' W 122°24'0 0.0
2015-Apr-20 21:33N 37°48' W 122°24'0 0.0
2015-Apr-20 20:34N 37°48' W 122°24'0 0.0
2015-Apr-20 19:34N 37°48' W 122°24'0 0.0
2015-Apr-20 18:34N 37°48' W 122°24'0 0.0
2015-Apr-20 17:34N 37°48' W 122°24'0 0.0
2015-Apr-20 16:33N 37°48' W 122°24'0 0.0
2015-Apr-20 15:34N 37°48' W 122°24'0 0.3
2015-Apr-20 14:33N 37°48' W 122°23'5 4.8
2015-Apr-20 13:34N 37°48' W 122°18'2 1.6
2015-Apr-20 12:33N 37°48' W 122°20'3 3.5
2015-Apr-20 11:34N 37°48' W 122°24'0 0.0
2015-Apr-20 10:34N 37°48' W 122°24'0 0.0
2015-Apr-20 09:34N 37°48' W 122°24'4 3.8
2015-Apr-20 08:33N 37°52' W 122°25'3 3.5
2015-Apr-20 07:33N 37°55' W 122°25'3 2.6
2015-Apr-20 06:34N 37°53' W 122°25'8 7.9
2015-Apr-20 05:34N 37°45' W 122°21'0 0.2
2015-Apr-20 04:33N 37°45' W 122°22'3 3.3
2015-Apr-20 03:33N 37°48' W 122°24'0 0.0
2015-Apr-20 02:33N 37°48' W 122°24'0 0.0
2015-Apr-20 01:34N 37°48' W 122°24'0 0.0
2015-Apr-20 00:33N 37°48' W 122°24'0 0.3
2015-Apr-19 23:34N 37°48' W 122°24'1 1.2
2015-Apr-19 22:33N 37°50' W 122°25'1 1.5
2015-Apr-19 21:33N 37°48' W 122°24'0 0.0
2015-Apr-19 20:33N 37°48' W 122°24'0 0.0
2015-Apr-19 19:33N 37°48' W 122°24'0 0.0
2015-Apr-19 18:34N 37°48' W 122°24'3 3.2
2015-Apr-19 17:34N 37°51' W 122°25'8 8.0
2015-Apr-19 16:34N 37°59' W 122°25'9 9.0
2015-Apr-19 15:33N 38°04' W 122°15'5 0.7
2015-Apr-19 08:04N 38°02' W 122°09'0 0.1
2015-Apr-19 06:31N 38°02' W 122°09'9 9.0
2015-Apr-19 05:33N 38°03' W 122°20'1010.2
2015-Apr-19 04:33N 37°54' W 122°26'6 6.2
2015-Apr-19 03:34N 37°49' W 122°31'4 4.5
2015-Apr-19 02:34N 37°49' W 122°26'2 1.6
2015-Apr-19 01:34N 37°48' W 122°24'0 0.0
2015-Apr-19 00:34N 37°48' W 122°24'0 0.0
2015-Apr-18 23:34N 37°48' W 122°24'0 0.0
2015-Apr-18 22:34N 37°48' W 122°24'0 0.0
2015-Apr-18 21:33N 37°48' W 122°24'0 0.0
2015-Apr-18 20:33N 37°48' W 122°24'0 0.0
2015-Apr-18 19:33N 37°48' W 122°24'0 0.0
2015-Apr-18 18:34N 37°48' W 122°24'0 0.0
2015-Apr-18 17:33N 37°48' W 122°24'0 0.0
2015-Apr-18 16:34N 37°48' W 122°24'0 0.0
2015-Apr-18 15:33N 37°48' W 122°24'0 0.0
2015-Apr-18 14:33N 37°48' W 122°24'4 4.2
2015-Apr-18 13:34N 37°48' W 122°19'1 0.8
2015-Apr-18 12:34N 37°48' W 122°18'5 4.6
2015-Apr-18 11:34N 37°49' W 122°23'1 1.0
2015-Apr-18 10:34N 37°48' W 122°24'0 0.0
2015-Apr-18 09:34N 37°48' W 122°24'0 0.0
2015-Apr-18 08:34N 37°48' W 122°24'0 0.0
2015-Apr-18 07:33N 37°48' W 122°24'0 0.0
2015-Apr-18 06:33N 37°48' W 122°24'0 0.0
2015-Apr-18 05:33N 37°48' W 122°24'0 0.0
2015-Apr-18 04:34N 37°48' W 122°24'0 0.0
2015-Apr-18 03:33N 37°48' W 122°24'0 0.0
2015-Apr-18 02:33N 37°48' W 122°24'0 0.0
2015-Apr-18 01:34N 37°48' W 122°24'0 0.0
2015-Apr-18 00:34N 37°48' W 122°24'0 0.0
2015-Apr-17 23:33N 37°48' W 122°24'0 0.0
2015-Apr-17 22:34N 37°48' W 122°24'0 0.0
2015-Apr-17 21:34N 37°48' W 122°24'0 0.0
2015-Apr-17 20:33N 37°48' W 122°24'0 0.0
2015-Apr-17 19:34N 37°48' W 122°24'0 0.0
2015-Apr-17 18:34N 37°48' W 122°24'0 0.0
2015-Apr-17 17:34N 37°48' W 122°24'1 0.8
2015-Apr-17 16:33N 37°49' W 122°24'5 5.4
2015-Apr-17 15:34N 37°54' W 122°22'1 0.8
2015-Apr-17 14:33N 37°55' W 122°22'0 0.0
2015-Apr-17 13:34N 37°55' W 122°22'1 0.7
2015-Apr-17 12:34N 37°54' W 122°22'6 6.4
2015-Apr-17 11:33N 37°48' W 122°24'0 0.0
2015-Apr-17 10:34N 37°48' W 122°24'0 0.0
2015-Apr-17 09:34N 37°48' W 122°24'0 0.0
2015-Apr-17 08:34N 37°48' W 122°24'0 0.0
2015-Apr-17 07:33N 37°48' W 122°24'0 0.0
2015-Apr-17 06:33N 37°48' W 122°24'0 0.0
2015-Apr-17 05:33N 37°48' W 122°24'0 0.0
2015-Apr-17 04:33N 37°48' W 122°24'0 0.0
2015-Apr-17 03:34N 37°48' W 122°24'0 0.0
2015-Apr-17 02:33N 37°48' W 122°24'0 0.0
2015-Apr-17 01:33N 37°48' W 122°24'5 5.3
2015-Apr-17 00:34N 37°48' W 122°17'2 1.6
2015-Apr-16 23:34N 37°48' W 122°19'4 3.6
2015-Apr-16 22:34N 37°48' W 122°24'0 0.0
2015-Apr-16 21:33N 37°48' W 122°24'1 1.0
2015-Apr-16 20:34N 37°49' W 122°24'10 9.5
2015-Apr-16 19:33N 37°59' W 122°26'11 7.6
2015-Apr-16 18:10N 38°04' W 122°14'4 0.3
2015-Apr-16 03:33N 38°02' W 122°09'1 1.1
2015-Apr-16 02:27N 38°02' W 122°08'8 0.4
2015-Apr-15 03:25N 38°03' W 122°18'1011.1
2015-Apr-15 02:33N 37°56' W 122°27'8 8.0
2015-Apr-15 01:34N 37°49' W 122°29'1 1.4
2015-Apr-15 00:33N 37°49' W 122°31'1 0.6
2015-Apr-14 23:33N 37°49' W 122°30'6 6.3
2015-Apr-14 22:33N 37°54' W 122°25'10 9.5
2015-Apr-14 21:31N 38°03' W 122°20'5 1.0
2015-Apr-14 16:10N 38°04' W 122°13'912.7
2015-Apr-14 15:29N 38°01' W 122°24'1010.9
2015-Apr-14 14:34N 37°51' W 122°23'4 4.2
2015-Apr-14 13:33N 37°48' W 122°19'3 3.2
2015-Apr-14 12:34N 37°47' W 122°23'1 1.2
2015-Apr-14 11:33N 37°48' W 122°24'0 0.0
2015-Apr-14 10:33N 37°48' W 122°24'0 0.0
2015-Apr-14 09:33N 37°48' W 122°24'0 0.0
2015-Apr-14 08:33N 37°48' W 122°24'0 0.0
2015-Apr-14 07:33N 37°48' W 122°24'0 0.0
2015-Apr-14 06:33N 37°48' W 122°24'0 0.0
2015-Apr-14 05:33N 37°48' W 122°24'0 0.0
2015-Apr-14 04:33N 37°48' W 122°24'0 0.0
2015-Apr-14 03:33N 37°48' W 122°24'0 0.0
2015-Apr-14 02:33N 37°48' W 122°24'0 0.0
2015-Apr-14 01:33N 37°48' W 122°24'0 0.0
2015-Apr-14 00:33N 37°48' W 122°24'0 0.0
2015-Apr-13 23:33N 37°48' W 122°24'0 0.0
2015-Apr-13 22:33N 37°48' W 122°24'0 0.0
2015-Apr-13 21:33N 37°48' W 122°24'0 0.0
2015-Apr-13 20:33N 37°48' W 122°24'0 0.0
2015-Apr-13 19:33N 37°48' W 122°24'0 0.0
2015-Apr-13 18:33N 37°48' W 122°24'0 0.0
2015-Apr-13 17:33N 37°48' W 122°24'0 0.0
2015-Apr-13 16:33N 37°48' W 122°24'0 0.0
2015-Apr-13 15:33N 37°48' W 122°24'0 0.0
2015-Apr-13 14:33N 37°48' W 122°24'0 0.0
2015-Apr-13 13:33N 37°48' W 122°24'0 0.0
2015-Apr-13 12:33N 37°48' W 122°24'0 0.0
2015-Apr-13 11:33N 37°48' W 122°24'0 0.0
2015-Apr-13 10:12N 37°48' W 122°24'0 0.0
2015-Apr-13 09:29N 37°48' W 122°24'0 0.0
2015-Apr-13 08:30N 37°48' W 122°24'0 0.0
2015-Apr-13 07:33N 37°48' W 122°24'0 0.0
2015-Apr-13 06:31N 37°48' W 122°24'0 0.0
2015-Apr-13 05:27N 37°48' W 122°24'0 0.0
2015-Apr-13 04:33N 37°48' W 122°24'0 0.0
2015-Apr-13 03:33N 37°48' W 122°24'0 0.0
2015-Apr-13 02:33N 37°48' W 122°24'5 4.5
2015-Apr-13 01:33N 37°53' W 122°25'8 7.9
2015-Apr-13 00:33N 38°00' W 122°24'8 8.1
2015-Apr-12 23:33N 38°04' W 122°14'7 5.1
2015-Apr-12 22:14N 38°02' W 122°23'6 8.3
2015-Apr-12 21:33N 37°56' W 122°26'8 8.4
2015-Apr-12 20:33N 37°48' W 122°24'0 0.0
2015-Apr-12 19:33N 37°48' W 122°24'0 0.0
2015-Apr-12 18:33N 37°48' W 122°24'0 0.0
2015-Apr-12 17:33N 37°48' W 122°24'0 0.0
2015-Apr-12 16:33N 37°48' W 122°24'0 0.0
2015-Apr-12 15:33N 37°48' W 122°24'0 0.0
2015-Apr-12 14:33N 37°48' W 122°24'0 0.0
2015-Apr-12 13:33N 37°48' W 122°24'3 3.3
2015-Apr-12 12:33N 37°49' W 122°20'0 0.1
2015-Apr-12 11:33N 37°49' W 122°20'3 3.2
2015-Apr-12 10:33N 37°48' W 122°24'0 0.0
2015-Apr-12 09:33N 37°48' W 122°24'0 0.0
2015-Apr-12 08:33N 37°48' W 122°24'0 0.0
2015-Apr-12 07:33N 37°48' W 122°24'0 0.0
2015-Apr-12 06:33N 37°48' W 122°24'0 0.0
2015-Apr-12 05:33N 37°48' W 122°24'0 0.0
2015-Apr-12 04:33N 37°48' W 122°24'0 0.0
2015-Apr-12 03:33N 37°48' W 122°24'0 0.0
2015-Apr-12 02:33N 37°48' W 122°24'0 0.0
2015-Apr-12 01:33N 37°48' W 122°24'0 0.0
2015-Apr-12 00:33N 37°48' W 122°24'0 0.0
2015-Apr-11 23:33N 37°48' W 122°24'4 4.0
2015-Apr-11 22:34N 37°48' W 122°19'4 4.0
2015-Apr-11 21:33N 37°48' W 122°24'0 0.0
2015-Apr-11 20:33N 37°48' W 122°24'0 0.0
2015-Apr-11 19:33N 37°48' W 122°24'0 0.0
2015-Apr-11 18:33N 37°48' W 122°24'0 0.0
2015-Apr-11 17:33N 37°48' W 122°24'0 0.0
2015-Apr-11 16:33N 37°48' W 122°24'2 2.0
2015-Apr-11 15:33N 37°49' W 122°26'2 1.5
2015-Apr-11 14:32N 37°50' W 122°27'8 8.2
2015-Apr-11 13:33N 37°59' W 122°26'8 7.7
2015-Apr-11 12:33N 38°03' W 122°18'8 6.5
2015-Apr-11 11:24N 38°02' W 122°09'1 1.3
2015-Apr-11 10:32N 38°03' W 122°08'0 0.0
2015-Apr-11 05:19N 38°03' W 122°08'0 0.0
2015-Apr-11 04:33N 38°03' W 122°08'  

Dump ship's entire track history